Time;durP1;ratioP1;P1;durP2;ratioP2;P2;SDS_P1;SDS_P2;PMS_P1;PMS_P2;Temp;Humidity;BMP_temperature;BMP_pressure;BME280_temperature;BME280_humidity;BME280_pressure;Samples;Min_cycle;Max_cycle;Signal;HPM_P1;HPM_P2
2022/04/02 00:03:06;;;;;;;;;;;;;;;2.69;63.09961;101802.6;;;;-85
2022/04/02 00:08:04;;;;;;;;;;;;;;;2.7;63.0918;101811.4;;;;-84
2022/04/02 00:13:03;;;;;;;;;;;;;;;2.7;62.96094;101817.7;;;;-82
2022/04/02 00:18:01;;;;;;;;;;;;;;;2.69;62.95898;101818.7;;;;-84
2022/04/02 00:24:37;;;;;;;3.8;0.8;;;;;;;;;;;;;-82
2022/04/02 00:28:11;;;;;;;;;;;;;;;2.68;63.0127;101817.2;;;;-84
2022/04/02 00:33:10;;;;;;;;;;;;;;;2.67;63.02246;101812.7;;;;-85
2022/04/02 00:38:12;;;;;;;;;;;;;;;2.65;62.9209;101818.6;;;;-84
2022/04/02 00:43:06;;;;;;;;;;;;;;;2.63;62.95117;101816.5;;;;-82
2022/04/02 00:48:06;;;;;;;;;;;;;;;2.58;63.03027;101814.4;;;;-83
2022/04/02 00:53:06;;;;;;;;;;;;;;;2.54;63.11133;101818.4;;;;-84
2022/04/02 00:54:43;;;;;;;2.4;0.8;;;;;;;;;;;;;-83
2022/04/02 00:58:01;;;;;;;;;;;;;;;2.47;63.16699;101818.2;;;;-84
2022/04/02 01:03:04;;;;;;;;;;;;;;;2.42;63.18262;101830;;;;-84
2022/04/02 01:08:05;;;;;;;;;;;;;;;2.37;63.08594;101834.6;;;;-83
2022/04/02 01:13:01;;;;;;;;;;;;;;;2.3;63.16504;101836;;;;-83
2022/04/02 01:18:07;;;;;;;;;;;;;;;2.24;63.20996;101833;;;;-81
2022/04/02 01:23:09;;;;;;;;;;;;;;;2.2;63.25977;101834.4;;;;-83
2022/04/02 01:24:40;;;;;;;2.2;0.9;;;;;;;;;;;;;-82
2022/04/02 01:28:02;;;;;;;;;;;;;;;2.19;63.28906;101834.4;;;;-83
2022/04/02 01:33:02;;;;;;;;;;;;;;;2.17;63.32031;101833.8;;;;-83
2022/04/02 01:38:04;;;;;;;;;;;;;;;2.16;63.28516;101837.5;;;;-81
2022/04/02 01:43:05;;;;;;;;;;;;;;;2.13;63.3252;101836.7;;;;-83
2022/04/02 01:48:01;;;;;;;;;;;;;;;2.12;63.30176;101831.7;;;;-83
2022/04/02 01:53:01;;;;;;;;;;;;;;;2.11;63.33203;101839.2;;;;-83
2022/04/02 01:54:38;;;;;;;4.5;0.9;;;;;;;;;;;;;-83
2022/04/02 01:58:05;;;;;;;;;;;;;;;2.1;63.33008;101842.1;;;;-84
2022/04/02 02:03:03;;;;;;;;;;;;;;;2.07;63.41309;101834.9;;;;-84
2022/04/02 02:08:00;;;;;;;;;;;;;;;2.05;63.3457;101834.4;;;;-84
2022/04/02 02:13:01;;;;;;;;;;;;;;;2.02;63.33984;101842;;;;-83
2022/04/02 02:18:07;;;;;;;;;;;;;;;2;63.46777;101844.8;;;;-84
2022/04/02 02:23:00;;;;;;;;;;;;;;;1.97;63.45313;101845.7;;;;-83
2022/04/02 02:24:39;;;;;;;2.3;1;;;;;;;;;;;;;-83
2022/04/02 02:28:06;;;;;;;;;;;;;;;1.94;63.44727;101849.3;;;;-83
2022/04/02 02:38:09;;;;;;;;;;;;;;;1.87;63.56934;101845.8;;;;-83
2022/04/02 02:43:00;;;;;;;;;;;;;;;1.85;63.58789;101838.7;;;;-84
2022/04/02 02:48:10;;;;;;;;;;;;;;;1.8;63.54883;101841.5;;;;-83
2022/04/02 02:53:04;;;;;;;;;;;;;;;1.78;63.59863;101850.2;;;;-85
2022/04/02 02:54:35;;;;;;;3.4;0.9;;;;;;;;;;;;;-83
2022/04/02 02:58:01;;;;;;;;;;;;;;;1.75;63.5625;101847;;;;-82
2022/04/02 03:03:03;;;;;;;;;;;;;;;1.73;63.51563;101847.5;;;;-82
2022/04/02 03:08:01;;;;;;;;;;;;;;;1.69;63.58594;101852;;;;-84
2022/04/02 03:13:02;;;;;;;;;;;;;;;1.61;63.60742;101851.9;;;;-82
2022/04/02 03:18:10;;;;;;;;;;;;;;;1.52;63.53809;101852.4;;;;-82
2022/04/02 03:23:02;;;;;;;;;;;;;;;1.42;63.64453;101860.5;;;;-84
2022/04/02 03:24:38;;;;;;;2.5;0.9;;;;;;;;;;;;;-84
2022/04/02 03:28:02;;;;;;;;;;;;;;;1.3;63.71289;101862.8;;;;-82
2022/04/02 03:33:03;;;;;;;;;;;;;;;1.2;63.74219;101860.2;;;;-83
2022/04/02 03:38:01;;;;;;;;;;;;;;;1.1;63.72754;101864.4;;;;-83
2022/04/02 03:43:01;;;;;;;;;;;;;;;0.98;63.83984;101861.4;;;;-84
2022/04/02 03:48:08;;;;;;;;;;;;;;;0.89;63.79297;101853.9;;;;-84
2022/04/02 03:53:06;;;;;;;;;;;;;;;0.78;63.875;101857.6;;;;-85
2022/04/02 03:54:39;;;;;;;1.6;0.8;;;;;;;;;;;;;-83
2022/04/02 03:58:01;;;;;;;;;;;;;;;0.69;63.92578;101868.1;;;;-83
2022/04/02 04:03:02;;;;;;;;;;;;;;;0.59;63.93359;101869.2;;;;-83
2022/04/02 04:08:03;;;;;;;;;;;;;;;0.5;64.10449;101876.3;;;;-84
2022/04/02 04:13:01;;;;;;;;;;;;;;;0.43;64.03906;101884.7;;;;-84
2022/04/02 04:18:04;;;;;;;;;;;;;;;0.33;64.21973;101887.1;;;;-83
2022/04/02 04:23:03;;;;;;;;;;;;;;;0.28;64.01758;101896.1;;;;-83
2022/04/02 04:24:35;;;;;;;2.2;0.8;;;;;;;;;;;;;-84
2022/04/02 04:28:02;;;;;;;;;;;;;;;0.22;64.18066;101897.2;;;;-83
2022/04/02 04:33:02;;;;;;;;;;;;;;;0.16;64.2041;101903;;;;-85
2022/04/02 04:38:01;;;;;;;;;;;;;;;0.1;64.22754;101907.5;;;;-83
2022/04/02 04:43:02;;;;;;;;;;;;;;;0.09;64.22754;101910.6;;;;-85
2022/04/02 04:48:01;;;;;;;;;;;;;;;0.07;64.33203;101917.1;;;;-82
2022/04/02 04:53:00;;;;;;;;;;;;;;;0.08;64.23535;101929.9;;;;-83
2022/04/02 04:54:35;;;;;;;3.9;0.9;;;;;;;;;;;;;-83
2022/04/02 04:58:04;;;;;;;;;;;;;;;0.09;64.20605;101934;;;;-84
2022/04/02 05:03:01;;;;;;;;;;;;;;;0.13;64.21289;101935;;;;-83
2022/04/02 05:08:03;;;;;;;;;;;;;;;0.18;64.15332;101931.8;;;;-84
2022/04/02 05:13:00;;;;;;;;;;;;;;;0.22;64.06055;101937.9;;;;-86
2022/04/02 05:18:07;;;;;;;;;;;;;;;0.24;64.16309;101942.3;;;;-82
2022/04/02 05:23:01;;;;;;;;;;;;;;;0.26;64.18848;101945.8;;;;-82
2022/04/02 05:24:40;;;;;;;2.1;0.7;;;;;;;;;;;;;-83
2022/04/02 05:28:04;;;;;;;;;;;;;;;0.29;64.04102;101947.4;;;;-84
2022/04/02 05:33:04;;;;;;;;;;;;;;;0.27;64.12305;101948.7;;;;-82
2022/04/02 05:38:03;;;;;;;;;;;;;;;0.25;63.93652;101960.7;;;;-83
2022/04/02 05:43:01;;;;;;;;;;;;;;;0.24;64;101963.1;;;;-83
2022/04/02 05:48:02;;;;;;;;;;;;;;;0.21;63.97266;101966.1;;;;-83
2022/04/02 05:53:03;;;;;;;;;;;;;;;0.19;63.94922;101969.6;;;;-82
2022/04/02 05:54:35;;;;;;;1.6;0.9;;;;;;;;;;;;;-83
2022/04/02 05:58:01;;;;;;;;;;;;;;;0.17;63.8584;101974.9;;;;-83
2022/04/02 06:03:03;;;;;;;;;;;;;;;0.16;63.91211;101975.9;;;;-82
2022/04/02 06:08:07;;;;;;;;;;;;;;;0.16;63.8916;101987.9;;;;-84
2022/04/02 06:13:06;;;;;;;;;;;;;;;0.25;63.97949;101998.7;;;;-82
2022/04/02 06:18:02;;;;;;;;;;;;;;;0.5;63.8877;101998.8;;;;-84
2022/04/02 06:23:00;;;;;;;;;;;;;;;0.77;63.54688;102003.4;;;;-84
2022/04/02 06:24:36;;;;;;;1.9;0.8;;;;;;;;;;;;;-82
2022/04/02 06:28:02;;;;;;;;;;;;;;;0.98;63.46875;102008.3;;;;-82
2022/04/02 06:33:01;;;;;;;;;;;;;;;1.19;63.54395;102011;;;;-83
2022/04/02 06:38:04;;;;;;;;;;;;;;;1.42;63.04395;102017.4;;;;-84
2022/04/02 06:43:08;;;;;;;;;;;;;;;1.59;62.42676;102019.5;;;;-86
2022/04/02 06:48:02;;;;;;;;;;;;;;;1.78;62.42383;102017.5;;;;-84
2022/04/02 06:53:03;;;;;;;;;;;;;;;2.09;62.16211;102025.2;;;;-84
2022/04/02 06:54:34;;;;;;;1.4;0.8;;;;;;;;;;;;;-86
2022/04/02 06:58:08;;;;;;;;;;;;;;;2.4;61.55176;102033.5;;;;-83
2022/04/02 07:03:05;;;;;;;;;;;;;;;2.65;60.85547;102036.5;;;;-85
2022/04/02 07:08:02;;;;;;;;;;;;;;;2.77;60.63477;102040.2;;;;-84
2022/04/02 07:13:20;;;;;;;;;;;;;;;2.93;60.24121;102060.1;;;;-84
2022/04/02 07:18:03;;;;;;;;;;;;;;;3.12;59.97168;102057.8;;;;-85
2022/04/02 07:23:13;;;;;;;;;;;;;;;3.36;59.41406;102056.8;;;;-85
2022/04/02 07:24:36;;;;;;;4.9;0.8;;;;;;;;;;;;;-83
2022/04/02 07:28:00;;;;;;;;;;;;;;;3.57;59.4873;102063.3;;;;-84
2022/04/02 07:33:02;;;;;;;;;;;;;;;3.84;58.91016;102071.9;;;;-84
2022/04/02 07:38:05;;;;;;;;;;;;;;;4.11;59.80273;102075.8;;;;-84
2022/04/02 07:43:06;;;;;;;;;;;;;;;4.38;59.05078;102082.4;;;;-82
2022/04/02 07:48:02;;;;;;;;;;;;;;;4.85;57.86133;102084.1;;;;-84
2022/04/02 07:53:10;;;;;;;;;;;;;;;5.45;56.98438;102087.9;;;;-85
2022/04/02 07:54:42;;;;;;;2.7;0.9;;;;;;;;;;;;;-86
2022/04/02 07:58:06;;;;;;;;;;;;;;;5.73;56.36133;102089;;;;-83
2022/04/02 08:03:04;;;;;;;;;;;;;;;6.21;56.32617;102093.6;;;;-84
2022/04/02 08:08:02;;;;;;;;;;;;;;;6.71;55.87012;102094;;;;-83
2022/04/02 08:13:05;;;;;;;;;;;;;;;7.24;54.74512;102091.1;;;;-84
2022/04/02 08:18:05;;;;;;;;;;;;;;;7.65;55.0166;102092.7;;;;-85
2022/04/02 08:23:03;;;;;;;;;;;;;;;8.05;54.11523;102094.7;;;;-83
2022/04/02 08:24:50;;;;;;;2;0.9;;;;;;;;;;;;;-84
2022/04/02 08:28:09;;;;;;;;;;;;;;;8.38;53.09082;102104;;;;-83
2022/04/02 08:33:12;;;;;;;;;;;;;;;8.6;52.58594;102111;;;;-83
2022/04/02 08:38:19;;;;;;;;;;;;;;;8.84;52.85938;102111.4;;;;-83
2022/04/02 08:46:15;;;;;;;;;;;;;;;9.76;51.43457;102117.1;;;;-82
2022/04/02 08:51:23;;;;;;;;;;;;;;;10.13;50.49707;102108.8;;;;-81
2022/04/02 08:54:47;;;;;;;2.2;1;;;;;;;;;;;;;-82
2022/04/02 08:56:15;;;;;;;;;;;;;;;10.32;49.24609;102113.3;;;;-82
2022/04/02 09:01:34;;;;;;;;;;;;;;;10.33;49.85059;102124;;;;-82
2022/04/02 09:06:39;;;;;;;;;;;;;;;;;;;;;
2022/04/02 09:11:33;;;;;;;;;;;;;;;10.19;49.97949;102134.2;;;;-82
2022/04/02 09:16:20;;;;;;;;;;;;;;;10.53;49.77344;102140.9;;;;-81
2022/04/02 09:24:48;;;;;;;2.6;1;;;;;;;;;;;;;-81
2022/04/02 09:26:25;;;;;;;;;;;;;;;10.62;47.83984;102143.1;;;;-81
2022/04/02 09:36:42;;;;;;;;;;;;;;;10.29;48.7959;102158.4;;;;-81
2022/04/02 09:41:32;;;;;;;;;;;;;;;10.51;50.27246;102132.8;;;;-84
2022/04/02 09:46:37;;;;;;;;;;;;;;;10.9;48.41895;102152.2;;;;-82
2022/04/02 09:51:22;;;;;;;;;;;;;;;10.91;47.18945;102150.2;;;;-82
2022/04/02 09:56:22;;;;;;;;;;;;;;;10.85;48.02148;102157.4;;;;-82
2022/04/02 10:01:21;;;;;;;;;;;;;;;11.1;48.39551;102146;;;;-81
2022/04/02 10:06:31;;;;;;;;;;;;;;;11.45;48.08691;102151.2;;;;-81
2022/04/02 10:11:24;;;;;;;;;;;;;;;11.36;46.0957;102151.8;;;;-83
2022/04/02 10:16:17;;;;;;;;;;;;;;;11.04;45.57031;102156.2;;;;-82
2022/04/02 10:21:16;;;;;;;;;;;;;;;10.69;46.9082;102153.8;;;;-80
2022/04/02 10:24:52;;;;;;;3.2;1.2;;;;;;;;;;;;;-81
2022/04/02 10:26:19;;;;;;;;;;;;;;;10.35;47.9541;102146.4;;;;-79
2022/04/02 10:31:33;;;;;;;;;;;;;;;10.08;47.07715;102156.5;;;;-81
2022/04/02 10:36:15;;;;;;;;;;;;;;;10.1;46.16406;102153.6;;;;-81
2022/04/02 10:41:24;;;;;;;;;;;;;;;10.18;46.86426;102156.3;;;;-81
2022/04/02 10:46:19;;;;;;;;;;;;;;;10.15;47.44141;102153.4;;;;-82
2022/04/02 10:51:17;;;;;;;;;;;;;;;10.05;47.83301;102150.9;;;;-82
2022/04/02 10:54:45;;;;;;;2.7;1.1;;;;;;;;;;;;;-82
2022/04/02 10:56:23;;;;;;;;;;;;;;;9.98;48.09277;102148.1;;;;-82
2022/04/02 11:01:22;;;;;;;;;;;;;;;9.91;48.82227;102155.5;;;;-82
2022/04/02 11:36:21;;;;;;;;;;;;;;;11.1;51.09082;102150.2;;;;-82
2022/04/02 11:41:33;;;;;;;;;;;;;;;11.03;50.62402;102151;;;;-82
2022/04/02 11:51:20;;;;;;;;;;;;;;;10.7;49.74707;102157.5;;;;-85
2022/04/02 11:54:54;;;;;;;4.1;1;;;;;;;;;;;;;-84
2022/04/02 11:56:27;;;;;;;;;;;;;;;10.5;50.27246;102157;;;;-85
2022/04/02 12:01:23;;;;;;;;;;;;;;;10.77;50.66016;102161.8;;;;-84
2022/04/02 12:06:19;;;;;;;;;;;;;;;11.19;49.58008;102159.8;;;;-85
2022/04/02 12:11:26;;;;;;;;;;;;;;;11.37;50.31738;102153.1;;;;-85
2022/04/02 12:16:14;;;;;;;;;;;;;;;11.73;50.99512;102148.8;;;;-87
2022/04/02 12:21:13;;;;;;;;;;;;;;;12.1;50.03125;102153.4;;;;-86
2022/04/02 12:24:50;;;;;;;1.8;0.7;;;;;;;;;;;;;-86
2022/04/02 12:26:15;;;;;;;;;;;;;;;12.37;49.84863;102151.2;;;;-86
2022/04/02 12:31:19;;;;;;;;;;;;;;;12.58;48.77246;102156.5;;;;-85
2022/04/02 12:36:24;;;;;;;;;;;;;;;12.8;49.08984;102158.2;;;;-86
2022/04/02 12:41:22;;;;;;;;;;;;;;;12.89;49.00879;102146.6;;;;-86
2022/04/02 12:46:25;;;;;;;;;;;;;;;13.03;49.97852;102155.9;;;;-86
2022/04/02 12:51:16;;;;;;;;;;;;;;;13.24;49.20703;102150;;;;-86
2022/04/02 12:54:52;;;;;;;2.2;0.8;;;;;;;;;;;;;-85
2022/04/02 12:56:14;;;;;;;;;;;;;;;13.38;50.1543;102151.3;;;;-86
2022/04/02 13:01:33;;;;;;;;;;;;;;;13.64;50.19629;102139.8;;;;-85
2022/04/02 13:06:27;;;;;;;;;;;;;;;13.98;49.63867;102153.8;;;;-86
2022/04/02 13:11:16;;;;;;;;;;;;;;;14.01;48.77539;102150.8;;;;-86
2022/04/02 13:16:15;;;;;;;;;;;;;;;14.01;48.69629;102147.8;;;;-84
2022/04/02 13:21:15;;;;;;;;;;;;;;;13.94;47.68652;102146.8;;;;-85
2022/04/02 13:24:57;;;;;;;1.4;0.6;;;;;;;;;;;;;-87
2022/04/02 13:26:35;;;;;;;;;;;;;;;13.65;47.55371;102154.4;;;;-85
2022/04/02 13:31:14;;;;;;;;;;;;;;;13.38;47.58008;102148.7;;;;-86
2022/04/02 13:36:18;;;;;;;;;;;;;;;13.42;48.55176;102156.4;;;;-85
2022/04/02 13:41:16;;;;;;;;;;;;;;;13.66;47.41992;102147.4;;;;-84
2022/04/02 13:46:18;;;;;;;;;;;;;;;13.74;47.75488;102154.3;;;;-86
2022/04/02 13:51:18;;;;;;;;;;;;;;;13.73;47.17969;102152.6;;;;-86
2022/04/02 13:55:00;;;;;;;1.3;0.7;;;;;;;;;;;;;-85
2022/04/02 13:56:18;;;;;;;;;;;;;;;13.54;47.38379;102156.7;;;;-87
2022/04/02 14:01:17;;;;;;;;;;;;;;;13.5;46.74902;102151.1;;;;-86
2022/04/02 14:06:24;;;;;;;;;;;;;;;13.5;45.84863;102158.3;;;;-87
2022/04/02 14:11:19;;;;;;;;;;;;;;;13.28;45.55566;102157.7;;;;-86
2022/04/02 14:16:16;;;;;;;;;;;;;;;13.09;45.18848;102166;;;;-86
2022/04/02 14:21:13;;;;;;;;;;;;;;;13.24;44.90039;102171.6;;;;-88
2022/04/02 14:25:00;;;;;;;2.1;0.7;;;;;;;;;;;;;-86
2022/04/02 14:26:37;;;;;;;;;;;;;;;13.42;44.98633;102165.6;;;;-85
2022/04/02 14:31:26;;;;;;;;;;;;;;;13.53;45.51465;102164;;;;-86
2022/04/02 14:36:26;;;;;;;;;;;;;;;13.66;45.54004;102165.3;;;;-85
2022/04/02 14:41:19;;;;;;;;;;;;;;;13.88;44.08691;102159.8;;;;-84
2022/04/02 14:46:24;;;;;;;;;;;;;;;13.77;42.46484;102163.5;;;;-85
2022/04/02 14:51:26;;;;;;;;;;;;;;;13.55;43.41113;102158.2;;;;-85
2022/04/02 14:55:08;;;;;;;4.9;0.7;;;;;;;;;;;;;-86
2022/04/02 14:56:23;;;;;;;;;;;;;;;13.51;43.82422;102165.3;;;;-84
2022/04/02 15:01:35;;;;;;;;;;;;;;;13.44;44.2793;102165.9;;;;-85
2022/04/02 15:06:29;;;;;;;;;;;;;;;13.44;44.25586;102173.7;;;;-86
2022/04/02 15:11:22;;;;;;;;;;;;;;;13.49;43.99121;102169.2;;;;-86
2022/04/02 15:16:24;;;;;;;;;;;;;;;13.47;44.34961;102168.2;;;;-86
2022/04/02 15:21:13;;;;;;;;;;;;;;;13.44;43.06348;102176.6;;;;-83
2022/04/02 15:25:18;;;;;;;2;0.5;;;;;;;;;;;;;-86
2022/04/02 15:26:23;;;;;;;;;;;;;;;13.26;42.13379;102181;;;;-86
2022/04/02 15:31:12;;;;;;;;;;;;;;;13.11;42.54688;102174.6;;;;-86
2022/04/02 15:36:37;;;;;;;;;;;;;;;12.97;42.73535;102181;;;;-84
2022/04/02 15:41:25;;;;;;;;;;;;;;;12.85;42.71191;102182.9;;;;-84
2022/04/02 15:46:27;;;;;;;;;;;;;;;12.65;42.28809;102186.7;;;;-86
2022/04/02 15:51:14;;;;;;;;;;;;;;;12.47;42.34961;102187.5;;;;-85
2022/04/02 15:55:03;;;;;;;2;0.8;;;;;;;;;;;;;-86
2022/04/02 15:56:13;;;;;;;;;;;;;;;12.29;42.35547;102196;;;;-85
2022/04/02 16:01:15;;;;;;;;;;;;;;;12.17;42.16309;102196.9;;;;-86
2022/04/02 16:06:40;;;;;;;;;;;;;;;12.09;42.35645;102200.3;;;;-86
2022/04/02 16:11:25;;;;;;;;;;;;;;;12;42.02344;102204;;;;-86
2022/04/02 16:16:13;;;;;;;;;;;;;;;11.86;42.33496;102212.2;;;;-85
2022/04/02 16:21:23;;;;;;;;;;;;;;;11.74;41.73926;102212.8;;;;-85
2022/04/02 16:25:03;;;;;;;2.9;0.7;;;;;;;;;;;;;-84
2022/04/02 16:26:15;;;;;;;;;;;;;;;11.59;41.93848;102218.9;;;;-87
2022/04/02 16:31:24;;;;;;;;;;;;;;;11.46;42.04883;102220.6;;;;-86
2022/04/02 16:36:38;;;;;;;;;;;;;;;11.3;42.52734;102229.9;;;;-86
2022/04/02 16:41:18;;;;;;;;;;;;;;;11.19;42.08008;102242.1;;;;-84
2022/04/02 16:46:15;;;;;;;;;;;;;;;11.01;42.35352;102240.5;;;;-86
2022/04/02 16:51:14;;;;;;;;;;;;;;;10.81;43.31934;102245.7;;;;-86
2022/04/02 16:55:00;;;;;;;2.1;0.7;;;;;;;;;;;;;-85
2022/04/02 16:56:14;;;;;;;;;;;;;;;10.66;43.19141;102257;;;;-84
2022/04/02 17:01:13;;;;;;;;;;;;;;;10.48;43.35352;102260.5;;;;-85
2022/04/02 17:06:13;;;;;;;;;;;;;;;10.29;43.41309;102273.3;;;;-85
2022/04/02 17:11:13;;;;;;;;;;;;;;;10.11;43.41699;102270.8;;;;-84
2022/04/02 17:16:21;;;;;;;;;;;;;;;9.88;43.98633;102278.2;;;;-84
2022/04/02 17:21:17;;;;;;;;;;;;;;;9.61;44.03613;102276.6;;;;-84
2022/04/02 17:25:10;;;;;;;1.3;0.5;;;;;;;;;;;;;-87
2022/04/02 17:26:25;;;;;;;;;;;;;;;9.38;44.07031;102280.8;;;;-88
2022/04/02 17:31:12;;;;;;;;;;;;;;;9.11;44.92285;102285.3;;;;-82
2022/04/02 17:36:13;;;;;;;;;;;;;;;8.85;45.21973;102292.8;;;;-85
2022/04/02 17:41:19;;;;;;;;;;;;;;;8.56;45.83398;102300.6;;;;-86
2022/04/02 17:46:13;;;;;;;;;;;;;;;8.26;45.73633;102305.4;;;;-84
2022/04/02 17:51:18;;;;;;;;;;;;;;;8;45.55273;102316;;;;-85
2022/04/02 17:55:19;;;;;;;2.1;0.5;;;;;;;;;;;;;-86
2022/04/02 17:56:14;;;;;;;;;;;;;;;7.73;46.21191;102316;;;;-85
2022/04/02 18:01:14;;;;;;;;;;;;;;;7.47;47.02734;102322.8;;;;-82
2022/04/02 18:06:24;;;;;;;;;;;;;;;7.23;46.81348;102337.3;;;;-84
2022/04/02 18:11:12;;;;;;;;;;;;;;;6.97;47.26074;102337.8;;;;-84
2022/04/02 18:16:13;;;;;;;;;;;;;;;6.73;47.37891;102343.9;;;;-85
2022/04/02 18:21:14;;;;;;;;;;;;;;;6.5;47.15527;102349.6;;;;-86
2022/04/02 18:25:11;;;;;;;1.1;0.4;;;;;;;;;;;;;-84
2022/04/02 18:26:14;;;;;;;;;;;;;;;6.3;47.28711;102350.9;;;;-85
2022/04/02 18:31:13;;;;;;;;;;;;;;;6.08;47.62891;102357.5;;;;-83
2022/04/02 18:36:12;;;;;;;;;;;;;;;5.88;47.7832;102365.4;;;;-85
2022/04/02 18:41:12;;;;;;;;;;;;;;;5.7;47.88477;102371.1;;;;-84
2022/04/02 18:46:12;;;;;;;;;;;;;;;5.51;48.33789;102377.7;;;;-82
2022/04/02 18:51:12;;;;;;;;;;;;;;;5.32;48.7373;102379.8;;;;-84
2022/04/02 18:55:10;;;;;;;1.4;0.5;;;;;;;;;;;;;-83
2022/04/02 18:56:12;;;;;;;;;;;;;;;5.13;49.0791;102384.6;;;;-83
2022/04/02 19:01:18;;;;;;;;;;;;;;;4.95;49.38965;102387.6;;;;-83
2022/04/02 19:06:13;;;;;;;;;;;;;;;4.78;49.77637;102390.4;;;;-83
2022/04/02 19:11:12;;;;;;;;;;;;;;;4.63;50.10059;102396.3;;;;-84
2022/04/02 19:16:15;;;;;;;;;;;;;;;4.46;50.43359;102395.6;;;;-84
2022/04/02 19:21:16;;;;;;;;;;;;;;;4.3;50.68945;102396.8;;;;-85
2022/04/02 19:25:08;;;;;;;1.9;0.6;;;;;;;;;;;;;-85
2022/04/02 19:26:27;;;;;;;;;;;;;;;4.17;50.98242;102395.4;;;;-85
2022/04/02 19:31:35;;;;;;;;;;;;;;;4.02;50.89746;102400.2;;;;-85
2022/04/02 19:36:27;;;;;;;;;;;;;;;3.87;51.00195;102409.3;;;;-84
2022/04/02 19:41:29;;;;;;;;;;;;;;;3.75;51.29492;102415.6;;;;-84
2022/04/02 19:46:15;;;;;;;;;;;;;;;3.62;51.41016;102422.8;;;;-85
2022/04/02 19:51:27;;;;;;;;;;;;;;;3.5;51.5498;102427.4;;;;-86
2022/04/02 19:55:15;;;;;;;1.7;0.6;;;;;;;;;;;;;-84
2022/04/02 19:56:14;;;;;;;;;;;;;;;3.38;51.65625;102434.7;;;;-85
2022/04/02 20:01:18;;;;;;;;;;;;;;;3.29;51.97363;102438.6;;;;-83
2022/04/02 20:06:13;;;;;;;;;;;;;;;3.2;51.83203;102439.4;;;;-86
2022/04/02 20:11:12;;;;;;;;;;;;;;;3.13;51.91113;102440;;;;-85
2022/04/02 20:16:12;;;;;;;;;;;;;;;3.04;52.03223;102447.7;;;;-86
2022/04/02 20:21:13;;;;;;;;;;;;;;;2.97;52.16699;102445.1;;;;-85
2022/04/02 20:25:05;;;;;;;1.9;0.7;;;;;;;;;;;;;-85
2022/04/02 20:26:12;;;;;;;;;;;;;;;2.87;52.3418;102452.2;;;;-85
2022/04/02 20:31:16;;;;;;;;;;;;;;;2.8;52.50684;102454.7;;;;-84
2022/04/02 20:36:12;;;;;;;;;;;;;;;2.71;52.55176;102457.3;;;;-85
2022/04/02 20:41:12;;;;;;;;;;;;;;;2.67;52.62207;102459;;;;-84
2022/04/02 20:46:19;;;;;;;;;;;;;;;2.65;52.75195;102470.3;;;;-86
2022/04/02 20:51:13;;;;;;;;;;;;;;;2.66;52.71973;102476.8;;;;-87
2022/04/02 20:55:06;;;;;;;1.4;0.8;;;;;;;;;;;;;-86
2022/04/02 20:56:20;;;;;;;;;;;;;;;2.68;52.77734;102482.2;;;;-85
2022/04/02 21:01:15;;;;;;;;;;;;;;;2.7;53.08691;102479.7;;;;-85
2022/04/02 21:06:13;;;;;;;;;;;;;;;2.74;52.99316;102480.3;;;;-85
2022/04/02 21:11:14;;;;;;;;;;;;;;;2.77;53.07324;102477.4;;;;-85
2022/04/02 21:16:24;;;;;;;;;;;;;;;2.81;53.18652;102472.3;;;;-85
2022/04/02 21:21:31;;;;;;;;;;;;;;;2.82;53.12207;102467.3;;;;-85
2022/04/02 21:25:09;;;;;;;2.3;0.9;;;;;;;;;;;;;-85
2022/04/02 21:26:12;;;;;;;;;;;;;;;2.8;53.3291;102476.6;;;;-86
2022/04/02 21:31:12;;;;;;;;;;;;;;;2.8;53.27441;102475.3;;;;-84
2022/04/02 21:36:12;;;;;;;;;;;;;;;2.77;53.22754;102471.4;;;;-85
2022/04/02 21:41:23;;;;;;;;;;;;;;;2.75;53.33203;102472.3;;;;-83
2022/04/02 21:46:20;;;;;;;;;;;;;;;2.71;53.25098;102474.4;;;;-83
2022/04/02 21:51:21;;;;;;;;;;;;;;;2.65;53.39746;102475.8;;;;-85
2022/04/02 21:55:08;;;;;;;1.8;0.8;;;;;;;;;;;;;-86
2022/04/02 21:56:21;;;;;;;;;;;;;;;2.6;53.45801;102466.9;;;;-85
2022/04/02 22:01:29;;;;;;;;;;;;;;;2.56;53.48438;102469.3;;;;-86
2022/04/02 22:06:14;;;;;;;;;;;;;;;2.54;53.56934;102480.2;;;;-84
2022/04/02 22:11:28;;;;;;;;;;;;;;;2.55;53.66895;102487.1;;;;-87
2022/04/02 22:16:22;;;;;;;;;;;;;;;2.56;53.57227;102502;;;;-87
2022/04/02 22:21:17;;;;;;;;;;;;;;;2.57;53.68457;102503.8;;;;-86
2022/04/02 22:25:08;;;;;;;2.6;1;;;;;;;;;;;;;-87
2022/04/02 22:26:24;;;;;;;;;;;;;;;2.59;53.91602;102502.4;;;;-85
2022/04/02 22:31:25;;;;;;;;;;;;;;;2.61;53.99414;102490.9;;;;-86
2022/04/02 22:36:16;;;;;;;;;;;;;;;2.63;53.98633;102483.9;;;;-85
2022/04/02 22:41:20;;;;;;;;;;;;;;;2.64;53.84473;102485;;;;-87
2022/04/02 22:46:22;;;;;;;;;;;;;;;2.63;53.9209;102488.3;;;;-88
2022/04/02 22:51:18;;;;;;;;;;;;;;;2.59;53.95996;102492.3;;;;-87
2022/04/02 22:55:12;;;;;;;2.2;0.9;;;;;;;;;;;;;-85
2022/04/02 22:56:20;;;;;;;;;;;;;;;2.53;54.11621;102496.7;;;;-86
2022/04/02 23:01:14;;;;;;;;;;;;;;;2.47;54.37109;102498.7;;;;-86
2022/04/02 23:06:13;;;;;;;;;;;;;;;2.41;54.40625;102499.4;;;;-86
2022/04/02 23:11:27;;;;;;;;;;;;;;;2.37;54.45508;102495;;;;-85
2022/04/02 23:16:15;;;;;;;;;;;;;;;2.3;54.5127;102493.8;;;;-86
2022/04/02 23:21:14;;;;;;;;;;;;;;;2.22;54.5791;102490;;;;-85
2022/04/02 23:25:10;;;;;;;1.9;0.8;;;;;;;;;;;;;-87
2022/04/02 23:26:12;;;;;;;;;;;;;;;2.13;54.75391;102489.9;;;;-87
2022/04/02 23:31:14;;;;;;;;;;;;;;;2.06;54.73438;102484.4;;;;-86
2022/04/02 23:36:20;;;;;;;;;;;;;;;1.96;54.95117;102478.8;;;;-86
2022/04/02 23:41:18;;;;;;;;;;;;;;;1.86;55.01465;102480.6;;;;-85
2022/04/02 23:46:17;;;;;;;;;;;;;;;1.75;55.16406;102480.2;;;;-87
2022/04/02 23:51:21;;;;;;;;;;;;;;;1.65;55.30371;102483;;;;-84
2022/04/02 23:55:08;;;;;;;1.4;0.7;;;;;;;;;;;;;-85
2022/04/02 23:56:13;;;;;;;;;;;;;;;1.54;55.35547;102478;;;;-86
